x

Grays Reef - 40 Nm Southeast Of Savannah, Ga (41008) Wave Buoy

12:50am - Sun 30th Apr 2017 All times are EDT. -4 hours from GMT.

  • Sig Wave height 2.6ft
  • Swell Direction
  • Peak Period 7s
  • Average Period 5s
  • Wind
    13mph, 18mph gusts
  • Sea Temp 74°f
  • Air Temp 75°f
  • Sea Pressure 1020.9mb
  • Grays Reef - 40 Nm Southeast Of Savannah, Ga
  • Grays Reef - 40 Nm Southeast Of Savannah, Ga

More Historic Weather Station data

Upgrade to MSW Pro to gain access to the past 30 days of data for over 8000 Wavebouys and Weather Stations around the globe.

Join Pro

Comparision Forecast

View Surf forecast
   
Sun 04/30 12:50am 2.5ft 7s 5s 13 18 mph 1020.9mb 74f 75f
Sat 04/29 11:50pm 2.5ft 6s 5s 11 13 mph 1021mb 74f 74f
10:50pm 3ft 6s 5s 9 11 mph 1021.2mb 74f 75f
8:50pm 3ft 6s 5s 11 13 mph 1021mb 75f 75f
7:50pm 3.5ft 5s 5s 11 13 mph 1020.8mb 75f 76f
6:50pm 3ft 5s 5s 13 16 mph 1021mb 75f 76f
5:50pm 3ft 5s 5s 11
mph
1021.3mb 76f 76f
4:50pm 2.5ft 5s 5s 9 11 mph 1021.7mb 76f 76f
3:50pm 2.5ft 6s 5s 7 9 mph 1021.9mb 76f 76f
2:50pm 3ft 6s 5s 7 9 mph 1022.2mb 75f 76f
1:50pm 3ft 6s 5s 7
mph
1022.3mb 75f 75f
12:50pm 3.5ft 6s 5s 7 9 mph 1022.5mb 74f 75f
11:50am 3.5ft 6s 5s 7
mph
1023mb 74f 75f
10:50am 3.5ft 6s 5s 7
mph
1023.2mb 73f 74f
9:50am 3.5ft 6s 5s 7
mph
1022.8mb 73f 74f
8:50am 4ft 5s 5s 7
mph
1022.2mb 73f 74f
7:50am 4ft 6s 5s 9 11 mph 1021.4mb 73f 74f
6:50am 3.5ft 5s 5s 9 11 mph 1020.8mb 73f 74f
5:50am 3ft 5s 4s 9 11 mph 1020.3mb 73f 74f
4:50am 2.5ft 5s 5s 9 11 mph 1020.1mb 73f 74f
3:50am 2.5ft 5s 5s 9 11 mph 1020.2mb 73f 74f
2:50am 2.5ft 5s 4s 11 13 mph 1020.2mb 73f 74f
1:50am 2.5ft 5s 4s 13 16 mph 1020.1mb 73f 74f
12:50am 3ft 8s 4s 13 16 mph 1020mb 73f 74f
Fri 04/28 11:50pm 3.5ft 5s 4s 16 18 mph 1019.8mb 73f 74f
10:50pm 3ft 5s 4s 18 20 mph 1019.6mb 73f 75f
9:50pm 3ft 5s 4s 16 18 mph 1019.3mb 73f 75f
8:50pm 3.5ft 5s 4s 16 18 mph 1018.6mb 74f 75f
7:50pm 3.5ft 5s 4s 16 18 mph 1018.5mb 74f 75f
6:50pm 3.5ft 5s 5s 16 20 mph 1018.1mb 74f 76f
5:50pm 3ft 8s 5s 13 16 mph 1018.2mb 74f 75f
4:50pm 3ft 8s 5s 11 16 mph 1017.9mb 74f 75f
3:50pm 2.5ft 9s 5s 11 13 mph 1018.2mb 74f 75f
2:50pm 2.5ft 5s 5s 11
mph
1018.7mb 74f 75f
1:50pm 2.5ft 9s 5s 9 11 mph 1018.8mb 74f 74f
12:50pm 3ft 9s 5s 9 11 mph 1018.9mb 73f 74f
11:50am 3ft 6s 5s 11 13 mph 1018.9mb 73f 74f
10:50am 3.5ft 6s 5s 9 11 mph 1018.5mb 73f 73f
9:50am 3.5ft 8s 5s 13 16 mph 1017.9mb 73f 73f
7:50am 3.5ft 8s  -  9
mph
1016.5mb 73f 73f
6:50am 3.5ft 5s 5s 9
mph
1015.8mb 73f 73f
5:50am 3.5ft 8s 5s 7 9 mph 1015.3mb 73f 73f
4:50am 3.5ft 5s 5s 9
mph
1015mb 73f 74f
3:50am 3ft 9s 5s 9 11 mph 1014.6mb 73f 74f
2:50am 3ft 9s 5s 13 16 mph 1014.4mb 73f 74f
1:50am 3ft 5s 5s 13 16 mph 1014mb 73f 74f
12:50am 3.5ft 5s 5s 13 16 mph 1014.2mb 73f 74f
Thu 04/27 11:50pm 3.5ft 5s 5s 9 11 mph 1014.7mb 73f 74f
10:50pm 3.5ft 8s 5s 13 16 mph 1013.9mb 73f 74f
9:50pm 3.5ft 4s 4s 16 18 mph 1012.6mb 73f 74f
7:50pm 3.5ft 8s 4s 18 20 mph 1011.6mb 73f 74f
6:50pm 3.5ft 8s 4s 16 20 mph 1011.6mb 73f 75f
5:50pm 3.5ft 8s 4s 16 18 mph 1011.9mb 73f 75f
4:50pm 3.5ft 8s 4s 18 20 mph 1011.7mb 73f 74f
3:50pm 3ft 8s 5s 13 16 mph 1012.5mb 73f 75f
2:50pm 3ft 9s 5s 13 18 mph 1012.7mb 73f 74f
1:50pm 3ft 5s 5s 16 18 mph 1012.5mb 73f 74f
12:50pm 3ft 9s 5s 13 18 mph 1013.3mb 73f 73f
11:50am 3.5ft 6s 5s 16 18 mph 1013.4mb 73f 73f
10:50am 3ft 9s 5s 11 13 mph 1013.7mb 73f 73f
9:50am 3.5ft 5s 5s 7 9 mph 1013.7mb 72f 73f
8:50am 3.5ft 6s 5s 7 9 mph 1013.5mb 72f 73f
7:50am 3.5ft 9s 5s 13 16 mph 1012.7mb 72f 73f
6:50am 4ft 5s 5s 13 16 mph 1011.8mb 72f 73f
5:50am 4.5ft 5s 5s 9 11 mph 1011.6mb 72f 73f
4:50am 4.5ft 5s 5s 13 16 mph 1011.4mb 72f 73f
3:50am 4ft 5s 5s 16 18 mph 1011.3mb 72f 73f
2:50am 4ft 5s 5s 18 22 mph 1011.4mb 72f 73f
1:50am 4ft 5s 4s 20 22 mph 1011.8mb 72f 73f
12:50am 3.5ft 5s 5s 20 25 mph 1012mb 72f 73f
Wed 04/26 11:50pm 3ft 9s 5s 11 16 mph 1012mb 72f 73f
10:50pm 3ft 9s 4s 18 22 mph 1011.6mb 72f 73f
9:50pm 3ft 9s 4s 18 20 mph 1010.9mb 72f 73f
7:50pm 2.5ft 8s 5s 16 18 mph 1010.3mb 72f 73f
6:50pm 2.5ft 9s 5s 16 18 mph 1010mb 73f 73f
5:50pm 2.5ft 9s 6s 13 16 mph 1010mb 74f 72f
4:50pm 2.5ft 9s 6s 11 13 mph 1010.1mb 74f 71f
3:50pm 2.5ft 9s 7s 9 11 mph 1010.2mb 74f 71f
2:50pm 2.5ft 8s 7s 9 11 mph 1010.9mb 74f 70f
1:50pm 2.5ft 9s 6s 9 11 mph 1011.8mb 74f 71f
12:50pm 2ft 10s 6s  -  2 mph 1012.1mb 73f 72f
11:50am 2.5ft 9s 6s 4
mph
1012.4mb 72f 70f
10:50am 2.5ft 10s 5s 7 9 mph 1012mb 72f 70f
9:50am 3ft 10s 5s 9
mph
1011.3mb 71f 70f
8:50am 3.5ft 10s 5s 11 16 mph 1011mb 71f 69f
7:50am 3.5ft 9s 5s 11 13 mph 1010mb 71f 69f
6:50am 3.5ft 9s 5s 13
mph
1009.2mb 71f 69f